Gornji Humac, Croatia
Current Conditions -  °F | °C
As of 9:30 AM on Friday 31 Oct 2014 (Local Time) from LDSP Reporting Station
Clear Clear  
Wind Chill: 57°   Ceiling: Unl
Heat Index: 57°   Visibility: 6mi
Dew Point: 37°   Wind: 6mph
Humidity: 48%   Direction: 10°N
Pressure: 30.21"   Gusts: NA
Location:  43.29°N, 16.71°E
Report Text: LDSP 310730Z 01005KT 320V070 CAVOK 14/03 Q1023 NOSIG
Loading
Personal Weather Stations






























Interactive Weather Map New forecast layout! Learn more

10-Day Weather Forecast

Advertisements
Track Severe Weather on mobile